Kezdőlap
METAR-TAF:

METAR-TAF

Repülőterek :

Bergen, Norvégia

földrajzi szélesség: 60-17N, földrajzi hosszúság: 005-14E, magasság: 5 m

Jelenlegi meteorológiai megfigyelések

A jelentés 29 perccel ezelõtt készült, 21:20 UTC
Délkeleti szél 8 kt
Hőmérséklet 19°C
Páratartalom 73%
Légköri nyomás 1016 hPa
Látótávolság 10 km, vagy több
Borult 5300 lábon

METAR: ENBR 192120Z 13008KT 9999 OVC053 19/14 Q1016 RMK WIND 1200FT 14017KT

Idő: 23:49 (21:49 UTC)

Előrejelzés

A jelentés 4 órával és 49 perccel ezelõtt készült, 17:00 UTC
Az előrejelzés 19-én 18 óra UTC és 20-én 18 óra UTC között érvényes
Dél-délkeleti szél 8 kt
Látótávolság 10 km, vagy több
Kevés felhő 3000 lábon
Szakadozott felhőzet 5000 lábon

TAF: ENBR 191700Z 1918/2018 15008KT 9999 FEW030 BKN050

Meteorológiai megfigyelések és előrejelzések több, mint 4000 repülőtéren (METAR és TAF jelentéseket).

A térképen piros és sárga pontok jelzik az elérhető meteorológiai állomásokat.

Mozgassa az egeret a pont fölött, hogy megjelenjen az állomás neve.

Azután kattintson az időjárási megfigyelések és előrejelzések megtekintéséhez.

A térkép megváltoztatása: kattintson a fekete keresztel jelölt zöld gombra ráközelítéshez, a vonallal jelölt zöld gombra távolításhoz, vagy a zöld nyilakra a szomszédos térképek eléréséhez.


METAR-TAF: